createdAt,value
2023-05-06T08:01:12.217Z,95201.00
2023-05-06T08:02:12.253Z,95199.00
2023-05-06T08:03:12.206Z,95201.00
2023-05-06T08:04:12.235Z,95201.00
2023-05-06T08:05:12.484Z,95199.00
2023-05-06T08:06:12.902Z,95201.00
2023-05-06T08:07:12.126Z,95205.00
2023-05-06T08:08:12.888Z,95203.00
2023-05-06T08:09:16.955Z,95201.00
2023-05-06T08:10:12.115Z,95197.00
2023-05-06T08:11:12.113Z,95199.00
2023-05-06T08:12:12.079Z,95199.00
2023-05-06T08:13:12.184Z,95199.00
2023-05-06T08:14:12.873Z,95201.00
2023-05-06T08:15:12.296Z,95201.00
2023-05-06T08:16:12.113Z,95203.00
2023-05-06T08:17:12.062Z,95207.00
2023-05-06T08:18:21.650Z,95207.00
2023-05-06T08:19:12.048Z,95207.00
2023-05-06T08:20:12.036Z,95207.00
2023-05-06T08:21:12.014Z,95203.00
2023-05-06T08:22:12.401Z,95207.00
2023-05-06T08:23:11.995Z,95209.00
2023-05-06T08:24:12.001Z,95209.00
2023-05-06T08:25:12.230Z,95209.00
2023-05-06T08:26:11.988Z,95211.00
2023-05-06T08:27:11.962Z,95213.00
2023-05-06T08:28:11.965Z,95211.00
2023-05-06T08:29:11.956Z,95211.00
2023-05-06T08:30:13.929Z,95211.00
2023-05-06T08:31:12.080Z,95211.00
2023-05-06T08:32:12.047Z,95211.00
2023-05-06T08:33:11.925Z,95209.00
2023-05-06T08:34:11.944Z,95215.00
2023-05-06T08:35:12.237Z,95213.00
2023-05-06T08:36:11.944Z,95211.00
2023-05-06T08:37:11.897Z,95211.00
2023-05-06T08:38:11.922Z,95211.00
2023-05-06T08:39:11.915Z,95209.00
2023-05-06T08:40:11.888Z,95211.00
2023-05-06T08:41:11.915Z,95211.00
2023-05-06T08:42:11.906Z,95211.00
2023-05-06T08:43:13.446Z,95213.00
2023-05-06T08:44:11.889Z,95213.00
2023-05-06T08:45:12.000Z,95217.00
2023-05-06T08:46:11.944Z,95215.00
2023-05-06T08:47:11.901Z,95215.00
2023-05-06T08:48:11.857Z,95219.00
2023-05-06T08:49:11.939Z,95221.00
2023-05-06T08:50:11.881Z,95219.00
2023-05-06T08:51:12.433Z,95217.00
2023-05-06T08:52:11.782Z,95215.00
2023-05-06T08:53:11.846Z,95215.00
2023-05-06T08:54:11.787Z,95217.00
2023-05-06T08:55:12.106Z,95217.00
2023-05-06T08:56:11.807Z,95215.00
2023-05-06T08:57:12.665Z,95213.00
2023-05-06T08:58:11.757Z,95213.00
2023-05-06T08:59:11.803Z,95217.00
2023-05-06T09:00:11.782Z,95213.00
2023-05-06T09:01:11.798Z,95215.00
2023-05-06T09:02:11.858Z,95219.00
2023-05-06T09:03:11.814Z,95225.00
2023-05-06T09:04:11.737Z,95221.00
2023-05-06T09:05:11.935Z,95221.00
2023-05-06T09:06:11.877Z,95225.00
2023-05-06T09:07:11.707Z,95227.00
2023-05-06T09:08:11.689Z,95225.00
2023-05-06T09:09:11.690Z,95225.00
2023-05-06T09:10:11.905Z,95225.00
2023-05-06T09:11:12.393Z,95225.00
2023-05-06T09:12:11.672Z,95221.00
2023-05-06T09:13:11.675Z,95223.00
2023-05-06T09:14:11.644Z,95225.00
2023-05-06T09:15:11.864Z,95223.00
2023-05-06T09:16:11.728Z,95225.00
2023-05-06T09:17:11.726Z,95225.00
2023-05-06T09:18:11.765Z,95221.00
2023-05-06T09:19:11.598Z,95221.00
2023-05-06T09:20:11.660Z,95223.00
2023-05-06T09:21:11.615Z,95219.00
2023-05-06T09:22:11.592Z,95215.00
2023-05-06T09:23:11.634Z,95215.00
2023-05-06T09:24:12.405Z,95215.00
2023-05-06T09:25:11.804Z,95211.00
2023-05-06T09:26:11.570Z,95215.00
2023-05-06T09:27:12.792Z,95213.00
2023-05-06T09:28:11.547Z,95213.00
2023-05-06T09:29:11.535Z,95213.00
2023-05-06T09:30:11.596Z,95211.00
2023-05-06T09:31:11.569Z,95211.00
2023-05-06T09:32:11.539Z,95209.00
2023-05-06T09:33:12.006Z,95209.00
2023-05-06T09:34:11.539Z,95209.00
2023-05-06T09:35:11.823Z,95209.00
2023-05-06T09:36:11.523Z,95211.00
2023-05-06T09:37:11.459Z,95211.00
2023-05-06T09:38:11.500Z,95209.00
2023-05-06T09:39:11.611Z,95211.00
2023-05-06T09:40:12.434Z,95209.00
2023-05-06T09:41:11.452Z,95209.00
2023-05-06T09:42:11.493Z,95211.00
2023-05-06T09:43:12.426Z,95211.00
2023-05-06T09:44:11.433Z,95209.00
2023-05-06T09:45:11.715Z,95211.00
2023-05-06T09:46:12.444Z,95209.00
2023-05-06T09:47:11.436Z,95211.00
2023-05-06T09:48:11.523Z,95211.00
2023-05-06T09:49:11.912Z,95211.00
2023-05-06T09:50:11.395Z,95209.00
2023-05-06T09:51:11.459Z,95207.00
2023-05-06T09:52:11.475Z,95209.00
2023-05-06T09:53:11.471Z,95207.00
2023-05-06T09:54:11.516Z,95207.00
2023-05-06T09:55:11.693Z,95209.00
2023-05-06T09:56:11.566Z,95207.00
2023-05-06T09:57:11.602Z,95207.00
2023-05-06T09:58:11.523Z,95207.00
2023-05-06T09:59:11.533Z,95207.00
2023-05-06T10:00:11.540Z,95205.00
2023-05-06T10:01:13.216Z,95207.00
2023-05-06T10:02:11.611Z,95203.00
2023-05-06T10:03:11.609Z,95207.00
2023-05-06T10:04:11.617Z,95205.00
2023-05-06T10:05:12.135Z,95203.00
2023-05-06T10:06:11.457Z,95201.00
2023-05-06T10:07:11.508Z,95201.00
2023-05-06T10:08:11.456Z,95199.00
2023-05-06T10:09:11.551Z,95197.00
2023-05-06T10:10:11.481Z,95197.00
2023-05-06T10:11:11.448Z,95197.00
2023-05-06T10:12:11.509Z,95195.00
2023-05-06T10:13:11.470Z,95193.00
2023-05-06T10:14:11.416Z,95191.00
2023-05-06T10:15:11.681Z,95193.00
2023-05-06T10:16:12.800Z,95191.00
2023-05-06T10:17:11.543Z,95191.00
2023-05-06T10:18:11.610Z,95189.00
2023-05-06T10:19:11.559Z,95184.00
2023-05-06T10:20:11.590Z,95182.00
2023-05-06T10:21:11.611Z,95180.00
2023-05-06T10:22:11.632Z,95182.00
2023-05-06T10:23:11.640Z,95184.00
2023-05-06T10:24:11.704Z,95184.00
2023-05-06T10:25:11.883Z,95184.00
2023-05-06T10:26:11.634Z,95180.00
2023-05-06T10:27:11.593Z,95178.00
2023-05-06T10:28:13.656Z,95176.00
2023-05-06T10:29:12.550Z,95176.00
2023-05-06T10:30:11.562Z,95174.00
2023-05-06T10:31:11.603Z,95172.00
2023-05-06T10:32:11.582Z,95172.00
2023-05-06T10:33:12.596Z,95172.00
2023-05-06T10:34:12.463Z,95170.00
2023-05-06T10:35:11.693Z,95168.00
2023-05-06T10:36:11.523Z,95168.00
2023-05-06T10:37:11.540Z,95168.00
2023-05-06T10:38:11.528Z,95168.00
2023-05-06T10:39:11.513Z,95168.00
2023-05-06T10:40:11.489Z,95166.00
2023-05-06T10:41:11.555Z,95164.00
2023-05-06T10:42:12.488Z,95162.00
2023-05-06T10:43:11.472Z,95154.00
2023-05-06T10:44:11.477Z,95162.00
2023-05-06T10:45:11.764Z,95154.00
2023-05-06T10:46:11.556Z,95162.00
2023-05-06T10:47:11.561Z,95154.00
2023-05-06T10:48:11.483Z,95152.00
2023-05-06T10:49:11.917Z,95152.00
2023-05-06T10:50:11.501Z,95150.00
2023-05-06T10:51:11.468Z,95150.00
2023-05-06T10:52:11.556Z,95148.00
2023-05-06T10:53:12.476Z,95146.00
2023-05-06T10:54:11.513Z,95142.00
2023-05-06T10:55:11.949Z,95144.00
2023-05-06T10:56:11.592Z,95140.00
2023-05-06T10:57:11.645Z,95142.00
2023-05-06T10:58:11.634Z,95142.00
2023-05-06T10:59:11.587Z,95138.00
2023-05-06T11:00:11.619Z,95140.00
2023-05-06T11:01:11.639Z,95140.00
2023-05-06T11:02:11.601Z,95140.00
2023-05-06T11:03:11.714Z,95138.00
2023-05-06T11:04:11.556Z,95138.00
2023-05-06T11:05:12.143Z,95140.00
2023-05-06T11:06:11.558Z,95138.00
2023-05-06T11:07:11.525Z,95138.00
2023-05-06T11:08:11.543Z,95138.00
2023-05-06T11:09:11.496Z,95132.00
2023-05-06T11:10:11.532Z,95132.00
2023-05-06T11:11:11.542Z,95132.00
2023-05-06T11:12:11.512Z,95134.00
2023-05-06T11:13:11.567Z,95132.00
2023-05-06T11:14:11.936Z,95134.00
2023-05-06T11:15:11.642Z,95130.00
2023-05-06T11:16:11.502Z,95130.00
2023-05-06T11:17:11.512Z,95130.00
2023-05-06T11:18:11.456Z,95128.00
2023-05-06T11:19:11.472Z,95134.00
2023-05-06T11:20:11.803Z,95132.00
2023-05-06T11:21:11.469Z,95134.00
2023-05-06T11:22:11.425Z,95132.00
2023-05-06T11:23:11.405Z,95134.00
2023-05-06T11:24:11.462Z,95134.00
2023-05-06T11:25:11.420Z,95134.00
2023-05-06T11:26:11.443Z,95136.00
2023-05-06T11:27:11.426Z,95136.00
2023-05-06T11:28:11.928Z,95136.00
2023-05-06T11:29:11.538Z,95136.00
2023-05-06T11:30:11.635Z,95136.00
2023-05-06T11:31:12.537Z,95136.00
2023-05-06T11:32:11.490Z,95134.00
2023-05-06T11:33:11.509Z,95130.00
2023-05-06T11:34:11.441Z,95132.00
2023-05-06T11:35:11.468Z,95132.00
2023-05-06T11:36:11.441Z,95132.00
2023-05-06T11:37:11.445Z,95132.00
2023-05-06T11:38:11.477Z,95130.00
2023-05-06T11:39:11.431Z,95130.00
2023-05-06T11:40:11.639Z,95126.00
2023-05-06T11:41:11.410Z,95130.00
2023-05-06T11:42:11.397Z,95130.00
2023-05-06T11:43:11.387Z,95132.00
2023-05-06T11:44:11.706Z,95130.00
2023-05-06T11:45:11.447Z,95128.00
2023-05-06T11:46:11.405Z,95124.00
2023-05-06T11:47:11.359Z,95121.00
2023-05-06T11:48:11.393Z,95124.00
2023-05-06T11:49:11.362Z,95121.00
2023-05-06T11:50:11.536Z,95121.00
2023-05-06T11:51:11.370Z,95119.00
2023-05-06T11:52:11.439Z,95119.00
2023-05-06T11:53:11.391Z,95119.00
2023-05-06T11:54:11.409Z,95115.00
2023-05-06T11:55:11.401Z,95113.00
2023-05-06T11:56:11.985Z,95109.00
2023-05-06T11:57:12.500Z,95109.00
2023-05-06T11:58:11.531Z,95109.00
2023-05-06T11:59:11.494Z,95107.00
2023-05-06T12:00:11.705Z,95107.00
2023-05-06T12:01:11.723Z,95103.00
2023-05-06T12:02:11.559Z,95099.00
2023-05-06T12:03:11.636Z,95099.00
2023-05-06T12:04:11.617Z,95095.00
2023-05-06T12:05:11.594Z,95091.00
2023-05-06T12:06:11.636Z,95087.00
2023-05-06T12:07:11.656Z,95082.00
2023-05-06T12:08:23.440Z,95082.00
2023-05-06T12:09:12.618Z,95076.00
2023-05-06T12:10:11.855Z,95078.00
2023-05-06T12:11:11.627Z,95078.00
2023-05-06T12:12:11.602Z,95078.00
2023-05-06T12:13:12.974Z,95076.00
2023-05-06T12:14:11.630Z,95074.00
2023-05-06T12:15:11.588Z,95072.00
2023-05-06T12:16:11.606Z,95068.00
2023-05-06T12:17:12.497Z,95070.00
2023-05-06T12:18:11.624Z,95070.00
2023-05-06T12:19:11.572Z,95070.00
2023-05-06T12:20:11.751Z,95070.00
2023-05-06T12:21:11.555Z,95068.00
2023-05-06T12:22:11.591Z,95064.00
2023-05-06T12:23:11.543Z,95066.00
2023-05-06T12:24:11.567Z,95068.00
2023-05-06T12:25:11.744Z,95068.00
2023-05-06T12:26:11.541Z,95066.00
2023-05-06T12:27:12.461Z,95064.00
2023-05-06T12:28:11.520Z,95060.00
2023-05-06T12:29:11.510Z,95062.00
2023-05-06T12:30:11.888Z,95062.00
2023-05-06T12:31:11.517Z,95062.00
2023-05-06T12:32:11.590Z,95060.00
2023-05-06T12:33:12.022Z,95062.00
2023-05-06T12:34:11.456Z,95058.00
2023-05-06T12:35:11.452Z,95058.00
2023-05-06T12:36:11.445Z,95060.00
2023-05-06T12:37:11.412Z,95058.00
2023-05-06T12:38:11.494Z,95056.00
2023-05-06T12:39:11.411Z,95054.00
2023-05-06T12:40:11.520Z,95052.00
2023-05-06T12:41:11.434Z,95050.00
2023-05-06T12:42:11.375Z,95050.00
2023-05-06T12:43:11.382Z,95050.00
2023-05-06T12:44:11.378Z,95048.00
2023-05-06T12:45:11.349Z,95044.00
2023-05-06T12:46:11.431Z,95046.00
2023-05-06T12:47:11.333Z,95046.00
2023-05-06T12:48:11.406Z,95044.00
2023-05-06T12:49:11.369Z,95044.00
2023-05-06T12:50:11.571Z,95040.00
2023-05-06T12:51:11.342Z,95040.00
2023-05-06T12:52:11.345Z,95038.00
2023-05-06T12:53:11.304Z,95040.00
2023-05-06T12:54:11.307Z,95038.00
2023-05-06T12:55:11.273Z,95034.00
2023-05-06T12:56:11.309Z,95034.00
2023-05-06T12:57:11.494Z,95032.00
2023-05-06T12:58:11.336Z,95032.00
2023-05-06T12:59:11.261Z,95030.00
2023-05-06T13:00:11.468Z,95027.00
